sensor_id;sensor_type;location;lat;lon;timestamp;temperature;humidity
4651;DHT22;2338;49.602;8.722;2024-03-07T00:02:15;6.70;99.90
4651;DHT22;2338;49.602;8.722;2024-03-07T00:05:01;6.60;99.90
4651;DHT22;2338;49.602;8.722;2024-03-07T00:07:47;6.60;99.90
4651;DHT22;2338;49.602;8.722;2024-03-07T00:10:33;6.50;99.90
4651;DHT22;2338;49.602;8.722;2024-03-07T00:13:20;6.40;99.90
4651;DHT22;2338;49.602;8.722;2024-03-07T00:16:06;6.40;99.90
4651;DHT22;2338;49.602;8.722;2024-03-07T00:18:54;6.40;99.90
4651;DHT22;2338;49.602;8.722;2024-03-07T00:21:40;6.30;99.90
4651;DHT22;2338;49.602;8.722;2024-03-07T00:24:25;6.10;99.90
4651;DHT22;2338;49.602;8.722;2024-03-07T00:27:12;6.00;99.90
4651;DHT22;2338;49.602;8.722;2024-03-07T00:29:58;5.90;99.90
4651;DHT22;2338;49.602;8.722;2024-03-07T00:32:44;5.90;99.90
4651;DHT22;2338;49.602;8.722;2024-03-07T00:35:31;5.90;99.90
4651;DHT22;2338;49.602;8.722;2024-03-07T00:38:17;5.90;99.90
4651;DHT22;2338;49.602;8.722;2024-03-07T00:41:03;5.80;99.90
4651;DHT22;2338;49.602;8.722;2024-03-07T00:43:48;5.80;99.90
4651;DHT22;2338;49.602;8.722;2024-03-07T00:46:34;5.80;99.90
4651;DHT22;2338;49.602;8.722;2024-03-07T00:49:20;5.80;99.90
4651;DHT22;2338;49.602;8.722;2024-03-07T00:52:07;5.80;99.90
4651;DHT22;2338;49.602;8.722;2024-03-07T00:54:54;5.70;99.90
4651;DHT22;2338;49.602;8.722;2024-03-07T00:57:39;5.70;99.90
4651;DHT22;2338;49.602;8.722;2024-03-07T01:00:25;5.70;99.90
4651;DHT22;2338;49.602;8.722;2024-03-07T01:03:12;5.70;99.90
4651;DHT22;2338;49.602;8.722;2024-03-07T01:05:58;5.60;99.90
4651;DHT22;2338;49.602;8.722;2024-03-07T01:08:45;5.60;99.90
4651;DHT22;2338;49.602;8.722;2024-03-07T01:11:31;5.50;99.90
4651;DHT22;2338;49.602;8.722;2024-03-07T01:14:17;5.40;99.90
4651;DHT22;2338;49.602;8.722;2024-03-07T01:17:02;5.40;99.90
4651;DHT22;2338;49.602;8.722;2024-03-07T01:19:51;5.30;99.90
4651;DHT22;2338;49.602;8.722;2024-03-07T01:22:37;5.30;99.90
4651;DHT22;2338;49.602;8.722;2024-03-07T01:25:24;5.20;99.90
4651;DHT22;2338;49.602;8.722;2024-03-07T01:28:09;5.20;99.90
4651;DHT22;2338;49.602;8.722;2024-03-07T01:30:57;5.10;99.90
4651;DHT22;2338;49.602;8.722;2024-03-07T01:33:43;5.10;99.90
4651;DHT22;2338;49.602;8.722;2024-03-07T01:36:28;5.10;99.90
4651;DHT22;2338;49.602;8.722;2024-03-07T01:39:15;5.10;99.90
4651;DHT22;2338;49.602;8.722;2024-03-07T01:42:02;4.90;99.90
4651;DHT22;2338;49.602;8.722;2024-03-07T01:44:48;4.90;99.90
4651;DHT22;2338;49.602;8.722;2024-03-07T01:47:34;5.00;99.90
4651;DHT22;2338;49.602;8.722;2024-03-07T01:50:20;5.00;99.90
4651;DHT22;2338;49.602;8.722;2024-03-07T01:53:06;5.10;99.90
4651;DHT22;2338;49.602;8.722;2024-03-07T01:55:56;5.00;99.90
4651;DHT22;2338;49.602;8.722;2024-03-07T01:58:46;5.00;99.90
4651;DHT22;2338;49.602;8.722;2024-03-07T02:01:32;4.90;99.90
4651;DHT22;2338;49.602;8.722;2024-03-07T02:04:20;4.90;99.90
4651;DHT22;2338;49.602;8.722;2024-03-07T02:07:05;4.80;99.90
4651;DHT22;2338;49.602;8.722;2024-03-07T02:10:02;4.80;99.90
4651;DHT22;2338;49.602;8.722;2024-03-07T02:12:48;4.70;99.90
4651;DHT22;2338;49.602;8.722;2024-03-07T02:15:35;4.80;99.90
4651;DHT22;2338;49.602;8.722;2024-03-07T02:18:21;4.70;99.90
4651;DHT22;2338;49.602;8.722;2024-03-07T02:21:09;4.70;99.90
4651;DHT22;2338;49.602;8.722;2024-03-07T02:23:55;4.60;99.90
4651;DHT22;2338;49.602;8.722;2024-03-07T02:26:42;4.60;99.90
4651;DHT22;2338;49.602;8.722;2024-03-07T02:29:28;4.60;99.90
4651;DHT22;2338;49.602;8.722;2024-03-07T02:32:15;4.60;99.90
4651;DHT22;2338;49.602;8.722;2024-03-07T02:35:01;4.40;99.90
4651;DHT22;2338;49.602;8.722;2024-03-07T02:37:49;4.40;99.90
4651;DHT22;2338;49.602;8.722;2024-03-07T02:40:34;4.40;99.90
4651;DHT22;2338;49.602;8.722;2024-03-07T02:43:20;4.40;99.90
4651;DHT22;2338;49.602;8.722;2024-03-07T02:46:06;4.40;99.90
4651;DHT22;2338;49.602;8.722;2024-03-07T02:48:52;4.40;99.90
4651;DHT22;2338;49.602;8.722;2024-03-07T02:51:38;4.30;99.90
4651;DHT22;2338;49.602;8.722;2024-03-07T02:54:25;4.30;99.90
4651;DHT22;2338;49.602;8.722;2024-03-07T02:57:10;4.20;99.90
4651;DHT22;2338;49.602;8.722;2024-03-07T02:59:56;4.30;99.90
4651;DHT22;2338;49.602;8.722;2024-03-07T03:02:42;4.30;99.90
4651;DHT22;2338;49.602;8.722;2024-03-07T03:05:28;4.20;99.90
4651;DHT22;2338;49.602;8.722;2024-03-07T03:08:14;4.20;99.90
4651;DHT22;2338;49.602;8.722;2024-03-07T03:11:01;4.30;99.90
4651;DHT22;2338;49.602;8.722;2024-03-07T03:13:47;4.10;99.90
4651;DHT22;2338;49.602;8.722;2024-03-07T03:16:33;4.10;99.90
4651;DHT22;2338;49.602;8.722;2024-03-07T03:19:19;4.10;99.90
4651;DHT22;2338;49.602;8.722;2024-03-07T03:22:07;4.00;99.90
4651;DHT22;2338;49.602;8.722;2024-03-07T03:24:53;3.90;99.90
4651;DHT22;2338;49.602;8.722;2024-03-07T03:27:41;3.90;99.90
4651;DHT22;2338;49.602;8.722;2024-03-07T03:30:26;3.90;99.90
4651;DHT22;2338;49.602;8.722;2024-03-07T03:33:12;3.90;99.90
4651;DHT22;2338;49.602;8.722;2024-03-07T03:35:58;3.80;99.90
4651;DHT22;2338;49.602;8.722;2024-03-07T03:38:44;3.70;99.90
4651;DHT22;2338;49.602;8.722;2024-03-07T03:41:29;3.70;99.90
4651;DHT22;2338;49.602;8.722;2024-03-07T03:44:16;3.70;99.90
4651;DHT22;2338;49.602;8.722;2024-03-07T03:47:02;3.70;99.90
4651;DHT22;2338;49.602;8.722;2024-03-07T03:49:48;3.60;99.90
4651;DHT22;2338;49.602;8.722;2024-03-07T03:52:34;3.70;99.90
4651;DHT22;2338;49.602;8.722;2024-03-07T03:55:20;3.70;99.90
4651;DHT22;2338;49.602;8.722;2024-03-07T03:58:05;3.60;99.90
4651;DHT22;2338;49.602;8.722;2024-03-07T04:00:53;3.60;99.90
4651;DHT22;2338;49.602;8.722;2024-03-07T04:03:38;3.60;99.90
4651;DHT22;2338;49.602;8.722;2024-03-07T04:06:24;3.50;99.90
4651;DHT22;2338;49.602;8.722;2024-03-07T04:09:10;3.50;99.90
4651;DHT22;2338;49.602;8.722;2024-03-07T04:11:56;3.40;99.90
4651;DHT22;2338;49.602;8.722;2024-03-07T04:14:42;3.40;99.90
4651;DHT22;2338;49.602;8.722;2024-03-07T04:17:29;3.40;99.90
4651;DHT22;2338;49.602;8.722;2024-03-07T04:20:15;3.30;99.90
4651;DHT22;2338;49.602;8.722;2024-03-07T04:23:02;3.20;99.90
4651;DHT22;2338;49.602;8.722;2024-03-07T04:25:48;3.30;99.90
4651;DHT22;2338;49.602;8.722;2024-03-07T04:28:34;3.30;99.90
4651;DHT22;2338;49.602;8.722;2024-03-07T04:31:19;3.20;99.90
4651;DHT22;2338;49.602;8.722;2024-03-07T04:34:07;3.30;99.90
4651;DHT22;2338;49.602;8.722;2024-03-07T04:36:53;3.20;99.90
4651;DHT22;2338;49.602;8.722;2024-03-07T04:39:39;3.20;99.90
4651;DHT22;2338;49.602;8.722;2024-03-07T04:42:24;3.20;99.90
4651;DHT22;2338;49.602;8.722;2024-03-07T04:45:11;3.20;99.90
4651;DHT22;2338;49.602;8.722;2024-03-07T04:47:57;3.20;99.90
4651;DHT22;2338;49.602;8.722;2024-03-07T04:50:44;3.20;99.90
4651;DHT22;2338;49.602;8.722;2024-03-07T04:53:30;3.30;99.90
4651;DHT22;2338;49.602;8.722;2024-03-07T04:56:16;3.10;99.90
4651;DHT22;2338;49.602;8.722;2024-03-07T04:59:02;3.00;99.90
4651;DHT22;2338;49.602;8.722;2024-03-07T05:01:48;3.00;99.90
4651;DHT22;2338;49.602;8.722;2024-03-07T05:04:34;3.10;99.90
4651;DHT22;2338;49.602;8.722;2024-03-07T05:07:21;3.10;99.90
4651;DHT22;2338;49.602;8.722;2024-03-07T05:10:07;3.20;99.90
4651;DHT22;2338;49.602;8.722;2024-03-07T05:12:53;3.10;99.90
4651;DHT22;2338;49.602;8.722;2024-03-07T05:15:39;3.00;99.90
4651;DHT22;2338;49.602;8.722;2024-03-07T05:18:25;3.00;99.90
4651;DHT22;2338;49.602;8.722;2024-03-07T05:21:10;3.00;99.90
4651;DHT22;2338;49.602;8.722;2024-03-07T05:24:11;2.90;99.90
4651;DHT22;2338;49.602;8.722;2024-03-07T05:26:57;3.00;99.90
4651;DHT22;2338;49.602;8.722;2024-03-07T05:29:43;3.00;99.90
4651;DHT22;2338;49.602;8.722;2024-03-07T05:32:29;3.00;99.90
4651;DHT22;2338;49.602;8.722;2024-03-07T05:35:15;2.90;99.90
4651;DHT22;2338;49.602;8.722;2024-03-07T05:38:01;2.90;99.90
4651;DHT22;2338;49.602;8.722;2024-03-07T05:40:50;2.90;99.90
4651;DHT22;2338;49.602;8.722;2024-03-07T05:43:36;2.90;99.90
4651;DHT22;2338;49.602;8.722;2024-03-07T05:46:22;3.00;99.90
4651;DHT22;2338;49.602;8.722;2024-03-07T05:49:08;2.90;99.90
4651;DHT22;2338;49.602;8.722;2024-03-07T05:51:53;3.00;99.90
4651;DHT22;2338;49.602;8.722;2024-03-07T05:54:39;3.00;99.90
4651;DHT22;2338;49.602;8.722;2024-03-07T05:57:26;2.90;99.90
4651;DHT22;2338;49.602;8.722;2024-03-07T06:00:13;2.90;99.90
4651;DHT22;2338;49.602;8.722;2024-03-07T06:03:00;2.90;99.90
4651;DHT22;2338;49.602;8.722;2024-03-07T06:05:46;2.80;99.90
4651;DHT22;2338;49.602;8.722;2024-03-07T06:08:32;2.80;99.90
4651;DHT22;2338;49.602;8.722;2024-03-07T06:11:17;2.70;99.90
4651;DHT22;2338;49.602;8.722;2024-03-07T06:14:07;2.70;99.90
4651;DHT22;2338;49.602;8.722;2024-03-07T06:16:53;2.60;99.90
4651;DHT22;2338;49.602;8.722;2024-03-07T06:19:39;2.70;99.90
4651;DHT22;2338;49.602;8.722;2024-03-07T06:22:25;2.80;99.90
4651;DHT22;2338;49.602;8.722;2024-03-07T06:25:10;2.70;99.90
4651;DHT22;2338;49.602;8.722;2024-03-07T06:28:04;2.70;99.90
4651;DHT22;2338;49.602;8.722;2024-03-07T06:30:56;2.70;99.90
4651;DHT22;2338;49.602;8.722;2024-03-07T06:33:42;2.70;99.90
4651;DHT22;2338;49.602;8.722;2024-03-07T06:36:27;2.70;99.90
4651;DHT22;2338;49.602;8.722;2024-03-07T06:39:13;2.80;99.90
4651;DHT22;2338;49.602;8.722;2024-03-07T06:41:59;2.90;99.90
4651;DHT22;2338;49.602;8.722;2024-03-07T06:44:45;3.00;99.90
4651;DHT22;2338;49.602;8.722;2024-03-07T06:47:32;3.00;99.90
4651;DHT22;2338;49.602;8.722;2024-03-07T06:50:18;3.10;99.90
4651;DHT22;2338;49.602;8.722;2024-03-07T06:53:04;3.10;99.90
4651;DHT22;2338;49.602;8.722;2024-03-07T06:55:50;3.30;99.90
4651;DHT22;2338;49.602;8.722;2024-03-07T06:58:37;3.30;99.90
4651;DHT22;2338;49.602;8.722;2024-03-07T07:01:23;3.40;99.90
4651;DHT22;2338;49.602;8.722;2024-03-07T07:04:10;3.50;99.90
4651;DHT22;2338;49.602;8.722;2024-03-07T07:06:57;3.50;99.90
4651;DHT22;2338;49.602;8.722;2024-03-07T07:09:43;3.60;99.90
4651;DHT22;2338;49.602;8.722;2024-03-07T07:12:28;3.60;99.90
4651;DHT22;2338;49.602;8.722;2024-03-07T07:15:16;3.60;99.90
4651;DHT22;2338;49.602;8.722;2024-03-07T07:18:02;3.60;99.90
4651;DHT22;2338;49.602;8.722;2024-03-07T07:20:50;3.50;99.90
4651;DHT22;2338;49.602;8.722;2024-03-07T07:23:36;3.50;99.90
4651;DHT22;2338;49.602;8.722;2024-03-07T07:26:21;3.50;99.90
4651;DHT22;2338;49.602;8.722;2024-03-07T07:29:07;3.50;99.90
4651;DHT22;2338;49.602;8.722;2024-03-07T07:31:53;3.60;99.90
4651;DHT22;2338;49.602;8.722;2024-03-07T07:34:39;3.70;99.90
4651;DHT22;2338;49.602;8.722;2024-03-07T07:37:28;3.70;99.90
4651;DHT22;2338;49.602;8.722;2024-03-07T07:40:16;3.80;99.90
4651;DHT22;2338;49.602;8.722;2024-03-07T07:43:03;3.90;99.90
4651;DHT22;2338;49.602;8.722;2024-03-07T07:45:49;3.90;99.90
4651;DHT22;2338;49.602;8.722;2024-03-07T07:48:35;3.90;99.90
4651;DHT22;2338;49.602;8.722;2024-03-07T07:51:20;4.00;99.90
4651;DHT22;2338;49.602;8.722;2024-03-07T07:54:07;4.00;99.90
4651;DHT22;2338;49.602;8.722;2024-03-07T07:56:53;3.90;99.90
4651;DHT22;2338;49.602;8.722;2024-03-07T07:59:39;4.00;99.90
4651;DHT22;2338;49.602;8.722;2024-03-07T08:02:24;4.10;99.90
4651;DHT22;2338;49.602;8.722;2024-03-07T08:05:12;4.10;99.90
4651;DHT22;2338;49.602;8.722;2024-03-07T08:08:03;4.20;99.90
4651;DHT22;2338;49.602;8.722;2024-03-07T08:10:51;4.20;99.90
4651;DHT22;2338;49.602;8.722;2024-03-07T08:13:37;4.20;99.90
4651;DHT22;2338;49.602;8.722;2024-03-07T08:16:22;4.20;99.90
4651;DHT22;2338;49.602;8.722;2024-03-07T08:19:08;4.30;99.90
4651;DHT22;2338;49.602;8.722;2024-03-07T08:21:55;4.30;99.90
4651;DHT22;2338;49.602;8.722;2024-03-07T08:24:40;4.50;99.90
4651;DHT22;2338;49.602;8.722;2024-03-07T08:27:27;4.50;99.90
4651;DHT22;2338;49.602;8.722;2024-03-07T08:30:15;4.70;99.90
4651;DHT22;2338;49.602;8.722;2024-03-07T08:33:01;4.90;99.90
4651;DHT22;2338;49.602;8.722;2024-03-07T08:35:49;5.20;99.90
4651;DHT22;2338;49.602;8.722;2024-03-07T08:38:37;5.30;99.90
4651;DHT22;2338;49.602;8.722;2024-03-07T08:41:23;5.50;99.90
4651;DHT22;2338;49.602;8.722;2024-03-07T08:44:10;5.70;99.90
4651;DHT22;2338;49.602;8.722;2024-03-07T08:46:57;5.90;99.90
4651;DHT22;2338;49.602;8.722;2024-03-07T08:49:43;6.00;99.90
4651;DHT22;2338;49.602;8.722;2024-03-07T08:52:28;6.20;99.90
4651;DHT22;2338;49.602;8.722;2024-03-07T08:55:15;6.30;99.90
4651;DHT22;2338;49.602;8.722;2024-03-07T08:58:00;6.30;99.90
4651;DHT22;2338;49.602;8.722;2024-03-07T09:00:48;6.40;99.90
4651;DHT22;2338;49.602;8.722;2024-03-07T09:03:36;6.50;99.90
4651;DHT22;2338;49.602;8.722;2024-03-07T09:06:22;6.50;99.90
4651;DHT22;2338;49.602;8.722;2024-03-07T09:09:07;6.60;99.90
4651;DHT22;2338;49.602;8.722;2024-03-07T09:11:54;6.60;99.90
4651;DHT22;2338;49.602;8.722;2024-03-07T09:14:40;6.60;99.90
4651;DHT22;2338;49.602;8.722;2024-03-07T09:17:27;6.70;99.90
4651;DHT22;2338;49.602;8.722;2024-03-07T09:20:12;6.70;99.90
4651;DHT22;2338;49.602;8.722;2024-03-07T09:22:59;6.70;99.90
4651;DHT22;2338;49.602;8.722;2024-03-07T09:25:45;6.70;99.90
4651;DHT22;2338;49.602;8.722;2024-03-07T09:28:31;6.70;99.90
4651;DHT22;2338;49.602;8.722;2024-03-07T09:31:16;6.80;99.90
4651;DHT22;2338;49.602;8.722;2024-03-07T09:34:04;6.80;99.90
4651;DHT22;2338;49.602;8.722;2024-03-07T09:36:50;6.80;99.90
4651;DHT22;2338;49.602;8.722;2024-03-07T09:39:36;6.90;99.90
4651;DHT22;2338;49.602;8.722;2024-03-07T09:42:22;6.90;99.90
4651;DHT22;2338;49.602;8.722;2024-03-07T09:45:16;6.90;99.90
4651;DHT22;2338;49.602;8.722;2024-03-07T09:48:03;6.90;99.90
4651;DHT22;2338;49.602;8.722;2024-03-07T09:50:52;6.90;99.90
4651;DHT22;2338;49.602;8.722;2024-03-07T09:53:41;7.00;99.90
4651;DHT22;2338;49.602;8.722;2024-03-07T09:56:28;7.00;99.90
4651;DHT22;2338;49.602;8.722;2024-03-07T09:59:17;7.00;99.90
4651;DHT22;2338;49.602;8.722;2024-03-07T10:02:06;7.00;99.90
4651;DHT22;2338;49.602;8.722;2024-03-07T10:04:53;7.00;99.90
4651;DHT22;2338;49.602;8.722;2024-03-07T10:07:42;7.00;99.90
4651;DHT22;2338;49.602;8.722;2024-03-07T10:10:27;7.00;99.90
4651;DHT22;2338;49.602;8.722;2024-03-07T10:13:14;7.10;99.90
4651;DHT22;2338;49.602;8.722;2024-03-07T10:16:01;7.10;99.90
4651;DHT22;2338;49.602;8.722;2024-03-07T10:18:49;7.10;99.90
4651;DHT22;2338;49.602;8.722;2024-03-07T10:21:34;7.20;99.90
4651;DHT22;2338;49.602;8.722;2024-03-07T10:24:24;7.30;99.90
4651;DHT22;2338;49.602;8.722;2024-03-07T10:27:09;7.40;99.90
4651;DHT22;2338;49.602;8.722;2024-03-07T10:29:55;7.60;99.90
4651;DHT22;2338;49.602;8.722;2024-03-07T10:32:41;7.70;99.90
4651;DHT22;2338;49.602;8.722;2024-03-07T10:35:27;7.70;99.90
4651;DHT22;2338;49.602;8.722;2024-03-07T10:38:14;7.80;99.90
4651;DHT22;2338;49.602;8.722;2024-03-07T10:41:03;7.90;99.90
4651;DHT22;2338;49.602;8.722;2024-03-07T10:43:53;8.00;99.90
4651;DHT22;2338;49.602;8.722;2024-03-07T10:46:41;8.20;99.90
4651;DHT22;2338;49.602;8.722;2024-03-07T10:49:31;8.40;99.90
4651;DHT22;2338;49.602;8.722;2024-03-07T10:52:26;8.60;99.90
4651;DHT22;2338;49.602;8.722;2024-03-07T10:55:26;8.80;99.90
4651;DHT22;2338;49.602;8.722;2024-03-07T10:58:27;8.80;99.90
4651;DHT22;2338;49.602;8.722;2024-03-07T11:01:19;8.90;99.90
4651;DHT22;2338;49.602;8.722;2024-03-07T11:04:05;9.00;99.90
4651;DHT22;2338;49.602;8.722;2024-03-07T11:06:52;9.30;99.90
4651;DHT22;2338;49.602;8.722;2024-03-07T11:09:38;9.50;99.90
4651;DHT22;2338;49.602;8.722;2024-03-07T11:12:26;9.60;96.90
4651;DHT22;2338;49.602;8.722;2024-03-07T11:15:15;9.60;98.50
4651;DHT22;2338;49.602;8.722;2024-03-07T11:18:04;9.60;95.20
4651;DHT22;2338;49.602;8.722;2024-03-07T11:20:52;9.60;99.10
4651;DHT22;2338;49.602;8.722;2024-03-07T11:23:44;9.60;99.80
4651;DHT22;2338;49.602;8.722;2024-03-07T11:26:30;9.50;97.60
4651;DHT22;2338;49.602;8.722;2024-03-07T11:32:43;9.50;97.20
4651;DHT22;2338;49.602;8.722;2024-03-07T11:35:33;9.50;97.50
4651;DHT22;2338;49.602;8.722;2024-03-07T11:38:19;9.50;98.40
4651;DHT22;2338;49.602;8.722;2024-03-07T11:41:08;9.50;99.90
4651;DHT22;2338;49.602;8.722;2024-03-07T11:43:59;9.60;99.90
4651;DHT22;2338;49.602;8.722;2024-03-07T11:46:44;9.60;98.70
4651;DHT22;2338;49.602;8.722;2024-03-07T11:49:31;9.50;98.40
4651;DHT22;2338;49.602;8.722;2024-03-07T11:52:17;9.40;99.90
4651;DHT22;2338;49.602;8.722;2024-03-07T11:55:03;9.30;99.90
4651;DHT22;2338;49.602;8.722;2024-03-07T11:57:49;9.30;99.90
4651;DHT22;2338;49.602;8.722;2024-03-07T12:00:35;9.30;99.90
4651;DHT22;2338;49.602;8.722;2024-03-07T12:03:21;9.40;99.90
4651;DHT22;2338;49.602;8.722;2024-03-07T12:06:10;9.50;99.90
4651;DHT22;2338;49.602;8.722;2024-03-07T12:08:59;9.60;96.90
4651;DHT22;2338;49.602;8.722;2024-03-07T12:11:50;9.60;99.90
4651;DHT22;2338;49.602;8.722;2024-03-07T12:14:36;9.70;99.90
4651;DHT22;2338;49.602;8.722;2024-03-07T12:17:23;9.80;99.90
4651;DHT22;2338;49.602;8.722;2024-03-07T12:20:09;9.70;98.20
4651;DHT22;2338;49.602;8.722;2024-03-07T12:23:11;9.70;99.00
4651;DHT22;2338;49.602;8.722;2024-03-07T12:26:00;9.60;98.00
4651;DHT22;2338;49.602;8.722;2024-03-07T12:28:46;9.70;99.20
4651;DHT22;2338;49.602;8.722;2024-03-07T12:31:33;9.80;99.70
4651;DHT22;2338;49.602;8.722;2024-03-07T12:34:20;9.90;98.80
4651;DHT22;2338;49.602;8.722;2024-03-07T12:37:06;9.90;96.60
4651;DHT22;2338;49.602;8.722;2024-03-07T12:39:53;9.90;94.20
4651;DHT22;2338;49.602;8.722;2024-03-07T12:42:46;9.80;96.00
4651;DHT22;2338;49.602;8.722;2024-03-07T12:45:32;9.80;93.70
4651;DHT22;2338;49.602;8.722;2024-03-07T12:48:18;9.80;93.50
4651;DHT22;2338;49.602;8.722;2024-03-07T12:51:05;10.00;93.80
4651;DHT22;2338;49.602;8.722;2024-03-07T12:53:51;10.20;93.60
4651;DHT22;2338;49.602;8.722;2024-03-07T12:56:38;10.40;92.50
4651;DHT22;2338;49.602;8.722;2024-03-07T12:59:24;10.60;93.40
4651;DHT22;2338;49.602;8.722;2024-03-07T13:02:10;10.80;93.70
4651;DHT22;2338;49.602;8.722;2024-03-07T13:04:56;10.90;89.80
4651;DHT22;2338;49.602;8.722;2024-03-07T13:07:42;10.70;89.60
4651;DHT22;2338;49.602;8.722;2024-03-07T13:10:28;10.60;87.60
4651;DHT22;2338;49.602;8.722;2024-03-07T13:13:15;10.50;90.30
4651;DHT22;2338;49.602;8.722;2024-03-07T13:16:01;10.50;91.70
4651;DHT22;2338;49.602;8.722;2024-03-07T13:18:47;10.40;91.00
4651;DHT22;2338;49.602;8.722;2024-03-07T13:21:34;10.20;90.80
4651;DHT22;2338;49.602;8.722;2024-03-07T13:24:20;10.10;90.20
4651;DHT22;2338;49.602;8.722;2024-03-07T13:27:05;10.10;91.20
4651;DHT22;2338;49.602;8.722;2024-03-07T13:29:57;10.00;89.10
4651;DHT22;2338;49.602;8.722;2024-03-07T13:32:43;10.00;90.10
4651;DHT22;2338;49.602;8.722;2024-03-07T13:35:30;10.00;92.00
4651;DHT22;2338;49.602;8.722;2024-03-07T13:38:15;9.90;90.80
4651;DHT22;2338;49.602;8.722;2024-03-07T13:41:01;9.80;91.90
4651;DHT22;2338;49.602;8.722;2024-03-07T13:43:48;9.80;93.00
4651;DHT22;2338;49.602;8.722;2024-03-07T13:46:35;9.80;94.50
4651;DHT22;2338;49.602;8.722;2024-03-07T13:49:21;9.90;93.50
4651;DHT22;2338;49.602;8.722;2024-03-07T13:52:07;9.90;92.90
4651;DHT22;2338;49.602;8.722;2024-03-07T13:55:02;9.90;94.00
4651;DHT22;2338;49.602;8.722;2024-03-07T13:57:57;9.90;92.00
4651;DHT22;2338;49.602;8.722;2024-03-07T14:00:48;9.80;91.40
4651;DHT22;2338;49.602;8.722;2024-03-07T14:07:15;9.80;90.30
4651;DHT22;2338;49.602;8.722;2024-03-07T14:10:25;9.90;93.10
4651;DHT22;2338;49.602;8.722;2024-03-07T14:13:30;9.80;91.40
4651;DHT22;2338;49.602;8.722;2024-03-07T14:16:47;9.90;90.90
4651;DHT22;2338;49.602;8.722;2024-03-07T14:23:22;9.90;89.60
4651;DHT22;2338;49.602;8.722;2024-03-07T14:26:49;9.90;90.10
4651;DHT22;2338;49.602;8.722;2024-03-07T14:29:42;9.90;90.40
4651;DHT22;2338;49.602;8.722;2024-03-07T14:32:29;9.90;91.80
4651;DHT22;2338;49.602;8.722;2024-03-07T14:35:24;9.90;90.80
4651;DHT22;2338;49.602;8.722;2024-03-07T14:38:27;9.90;88.30
4651;DHT22;2338;49.602;8.722;2024-03-07T14:41:14;9.90;91.10
4651;DHT22;2338;49.602;8.722;2024-03-07T14:44:00;10.00;86.00
4651;DHT22;2338;49.602;8.722;2024-03-07T14:46:52;10.00;88.40
4651;DHT22;2338;49.602;8.722;2024-03-07T14:49:39;10.00;85.80
4651;DHT22;2338;49.602;8.722;2024-03-07T14:52:25;9.90;84.80
4651;DHT22;2338;49.602;8.722;2024-03-07T14:55:16;9.90;87.80
4651;DHT22;2338;49.602;8.722;2024-03-07T14:58:03;10.00;85.80
4651;DHT22;2338;49.602;8.722;2024-03-07T15:00:50;10.00;84.00
4651;DHT22;2338;49.602;8.722;2024-03-07T15:03:38;10.00;83.10
4651;DHT22;2338;49.602;8.722;2024-03-07T15:06:25;10.00;84.70
4651;DHT22;2338;49.602;8.722;2024-03-07T15:09:16;10.00;83.00
4651;DHT22;2338;49.602;8.722;2024-03-07T15:12:05;10.00;83.40
4651;DHT22;2338;49.602;8.722;2024-03-07T15:14:52;10.00;82.60
4651;DHT22;2338;49.602;8.722;2024-03-07T15:17:38;9.90;85.50
4651;DHT22;2338;49.602;8.722;2024-03-07T15:20:24;9.90;88.80
4651;DHT22;2338;49.602;8.722;2024-03-07T15:23:10;9.80;89.10
4651;DHT22;2338;49.602;8.722;2024-03-07T15:25:58;9.70;88.10
4651;DHT22;2338;49.602;8.722;2024-03-07T15:28:45;9.60;89.80
4651;DHT22;2338;49.602;8.722;2024-03-07T15:31:30;9.50;90.30
4651;DHT22;2338;49.602;8.722;2024-03-07T15:34:16;9.50;90.30
4651;DHT22;2338;49.602;8.722;2024-03-07T15:37:02;9.50;90.50
4651;DHT22;2338;49.602;8.722;2024-03-07T15:39:47;9.50;92.50
4651;DHT22;2338;49.602;8.722;2024-03-07T15:42:33;9.50;92.70
4651;DHT22;2338;49.602;8.722;2024-03-07T15:45:21;9.40;92.50
4651;DHT22;2338;49.602;8.722;2024-03-07T15:48:08;9.40;92.00
4651;DHT22;2338;49.602;8.722;2024-03-07T15:50:55;9.40;93.40
4651;DHT22;2338;49.602;8.722;2024-03-07T15:53:41;9.40;92.40
4651;DHT22;2338;49.602;8.722;2024-03-07T15:56:27;9.40;92.10
4651;DHT22;2338;49.602;8.722;2024-03-07T15:59:13;9.30;90.90
4651;DHT22;2338;49.602;8.722;2024-03-07T16:02:00;9.30;91.80
4651;DHT22;2338;49.602;8.722;2024-03-07T16:04:46;9.30;91.60
4651;DHT22;2338;49.602;8.722;2024-03-07T16:07:31;9.30;91.60
4651;DHT22;2338;49.602;8.722;2024-03-07T16:10:18;9.40;91.70
4651;DHT22;2338;49.602;8.722;2024-03-07T16:13:05;9.30;90.30
4651;DHT22;2338;49.602;8.722;2024-03-07T16:15:51;9.20;89.80
4651;DHT22;2338;49.602;8.722;2024-03-07T16:18:39;9.20;91.40
4651;DHT22;2338;49.602;8.722;2024-03-07T16:21:26;9.20;90.90
4651;DHT22;2338;49.602;8.722;2024-03-07T16:24:11;9.10;90.60
4651;DHT22;2338;49.602;8.722;2024-03-07T16:26:57;9.10;91.10
4651;DHT22;2338;49.602;8.722;2024-03-07T16:29:43;9.10;91.90
4651;DHT22;2338;49.602;8.722;2024-03-07T16:32:28;9.10;90.90
4651;DHT22;2338;49.602;8.722;2024-03-07T16:35:16;9.10;92.10
4651;DHT22;2338;49.602;8.722;2024-03-07T16:38:04;9.10;93.00
4651;DHT22;2338;49.602;8.722;2024-03-07T16:40:52;9.10;93.30
4651;DHT22;2338;49.602;8.722;2024-03-07T16:43:38;9.10;93.80
4651;DHT22;2338;49.602;8.722;2024-03-07T16:46:24;9.10;92.40
4651;DHT22;2338;49.602;8.722;2024-03-07T16:49:10;9.00;92.50
4651;DHT22;2338;49.602;8.722;2024-03-07T16:51:59;9.00;93.60
4651;DHT22;2338;49.602;8.722;2024-03-07T16:54:45;9.00;93.50
4651;DHT22;2338;49.602;8.722;2024-03-07T16:57:31;9.00;92.90
4651;DHT22;2338;49.602;8.722;2024-03-07T17:00:18;8.90;94.50
4651;DHT22;2338;49.602;8.722;2024-03-07T17:03:11;8.90;93.60
4651;DHT22;2338;49.602;8.722;2024-03-07T17:05:59;8.90;94.30
4651;DHT22;2338;49.602;8.722;2024-03-07T17:08:46;8.90;93.90
4651;DHT22;2338;49.602;8.722;2024-03-07T17:11:32;8.80;94.10
4651;DHT22;2338;49.602;8.722;2024-03-07T17:14:19;8.80;94.10
4651;DHT22;2338;49.602;8.722;2024-03-07T17:17:05;8.80;95.20
4651;DHT22;2338;49.602;8.722;2024-03-07T17:19:51;8.80;95.10
4651;DHT22;2338;49.602;8.722;2024-03-07T17:22:37;8.70;93.90
4651;DHT22;2338;49.602;8.722;2024-03-07T17:25:25;8.70;93.40
4651;DHT22;2338;49.602;8.722;2024-03-07T17:28:13;8.70;94.90
4651;DHT22;2338;49.602;8.722;2024-03-07T17:31:00;8.70;94.70
4651;DHT22;2338;49.602;8.722;2024-03-07T17:33:46;8.70;95.50
4651;DHT22;2338;49.602;8.722;2024-03-07T17:36:32;8.60;95.60
4651;DHT22;2338;49.602;8.722;2024-03-07T17:39:18;8.60;95.40
4651;DHT22;2338;49.602;8.722;2024-03-07T17:42:05;8.60;94.60
4651;DHT22;2338;49.602;8.722;2024-03-07T17:44:55;8.60;95.80
4651;DHT22;2338;49.602;8.722;2024-03-07T17:47:41;8.70;96.50
4651;DHT22;2338;49.602;8.722;2024-03-07T17:50:28;8.70;97.20
4651;DHT22;2338;49.602;8.722;2024-03-07T17:53:14;8.70;96.60
4651;DHT22;2338;49.602;8.722;2024-03-07T17:56:00;8.60;95.60
4651;DHT22;2338;49.602;8.722;2024-03-07T17:58:47;8.60;95.30
4651;DHT22;2338;49.602;8.722;2024-03-07T18:01:33;8.60;94.10
4651;DHT22;2338;49.602;8.722;2024-03-07T18:04:18;8.50;94.90
4651;DHT22;2338;49.602;8.722;2024-03-07T18:07:08;8.60;95.40
4651;DHT22;2338;49.602;8.722;2024-03-07T18:09:54;8.60;95.70
4651;DHT22;2338;49.602;8.722;2024-03-07T18:12:40;8.60;95.90
4651;DHT22;2338;49.602;8.722;2024-03-07T18:15:27;8.60;95.20
4651;DHT22;2338;49.602;8.722;2024-03-07T18:18:13;8.50;94.40
4651;DHT22;2338;49.602;8.722;2024-03-07T18:21:00;8.50;96.00
4651;DHT22;2338;49.602;8.722;2024-03-07T18:23:45;8.50;95.50
4651;DHT22;2338;49.602;8.722;2024-03-07T18:26:31;8.50;95.10
4651;DHT22;2338;49.602;8.722;2024-03-07T18:29:18;8.50;95.30
4651;DHT22;2338;49.602;8.722;2024-03-07T18:32:06;8.50;94.90
4651;DHT22;2338;49.602;8.722;2024-03-07T18:34:53;8.50;94.90
4651;DHT22;2338;49.602;8.722;2024-03-07T18:37:39;8.50;95.10
4651;DHT22;2338;49.602;8.722;2024-03-07T18:40:25;8.50;95.10